createdAt,value
2017-07-12T00:00:16.933Z,87.68
2017-07-12T00:01:17.720Z,87.68
2017-07-12T00:02:18.359Z,87.78
2017-07-12T00:03:18.997Z,87.88
2017-07-12T00:04:19.634Z,87.88
2017-07-12T00:05:20.270Z,87.68
2017-07-12T00:06:20.906Z,88.02
2017-07-12T00:07:21.543Z,87.64
2017-07-12T00:08:22.185Z,88.02
2017-07-12T00:09:22.818Z,87.68
2017-07-12T00:10:23.758Z,87.74
2017-07-12T00:11:24.444Z,87.83
2017-07-12T00:12:25.083Z,88.31
2017-07-12T00:13:25.720Z,88.22
2017-07-12T00:14:26.306Z,88.22
2017-07-12T00:15:26.943Z,88.31
2017-07-12T00:16:27.580Z,88.51
2017-07-12T00:17:28.217Z,88.22
2017-07-12T00:18:29.056Z,88.41
2017-07-12T00:19:29.692Z,88.22
2017-07-12T00:20:30.328Z,88.51
2017-07-12T00:21:30.963Z,88.41
2017-07-12T00:22:31.601Z,88.51
2017-07-12T00:23:32.236Z,88.41
2017-07-12T00:24:33.024Z,88.31
2017-07-12T00:25:33.659Z,88.02
2017-07-12T00:26:34.299Z,88.41
2017-07-12T00:27:34.935Z,88.12
2017-07-12T00:28:35.571Z,88.12
2017-07-12T00:29:36.210Z,88.70
2017-07-12T00:30:36.849Z,88.60
2017-07-12T00:31:37.484Z,88.60
2017-07-12T00:32:38.322Z,88.41
2017-07-12T00:33:38.961Z,88.22
2017-07-12T00:34:39.697Z,88.41
2017-07-12T00:35:40.386Z,88.70
2017-07-12T00:36:41.023Z,88.89
2017-07-12T00:37:41.710Z,88.60
2017-07-12T00:38:42.348Z,88.70
2017-07-12T00:39:42.984Z,88.99
2017-07-12T00:40:43.821Z,88.70
2017-07-12T00:41:44.456Z,88.89
2017-07-12T00:42:45.093Z,88.70
2017-07-12T00:43:45.730Z,88.89
2017-07-12T00:44:46.370Z,88.79
2017-07-12T00:45:47.008Z,88.60
2017-07-12T00:46:47.644Z,88.70
2017-07-12T00:47:48.280Z,88.70
2017-07-12T00:48:48.917Z,88.60
2017-07-12T00:49:49.706Z,88.89
2017-07-12T00:50:50.342Z,88.79
2017-07-12T00:51:50.980Z,88.70
2017-07-12T00:52:51.618Z,88.89
2017-07-12T00:53:52.256Z,88.51
2017-07-12T00:54:52.895Z,88.99
2017-07-12T00:55:53.533Z,89.09
2017-07-12T00:56:54.171Z,88.70
2017-07-12T00:57:55.006Z,88.79
2017-07-12T00:58:55.648Z,88.60
2017-07-12T00:59:56.279Z,88.70
2017-07-12T01:00:56.916Z,88.70
2017-07-12T01:01:57.554Z,88.51
2017-07-12T01:02:58.189Z,88.70
2017-07-12T01:03:58.827Z,88.89
2017-07-12T01:04:59.513Z,89.18
2017-07-12T01:06:00.353Z,89.18
